createdAt,value
2023-02-27T00:00:14.853Z,12.83
2023-02-27T00:01:46.621Z,12.78
2023-02-27T00:03:18.170Z,12.69
2023-02-27T00:04:50.618Z,12.60
2023-02-27T00:06:22.194Z,12.49
2023-02-27T00:07:53.920Z,12.42
2023-02-27T00:09:25.442Z,12.36
2023-02-27T00:10:57.006Z,12.33
2023-02-27T00:12:28.521Z,12.27
2023-02-27T00:14:00.342Z,12.25
2023-02-27T00:15:32.625Z,12.24
2023-02-27T00:17:04.182Z,12.23
2023-02-27T00:18:35.768Z,12.18
2023-02-27T00:20:10.531Z,12.20
2023-02-27T00:21:42.058Z,12.22
2023-02-27T00:23:15.826Z,12.23
2023-02-27T00:24:47.372Z,12.25
2023-02-27T00:26:19.002Z,12.27
2023-02-27T00:27:50.693Z,12.30
2023-02-27T00:29:22.361Z,12.31
2023-02-27T00:30:54.055Z,12.32
2023-02-27T00:32:25.656Z,12.33
2023-02-27T00:33:57.202Z,12.29
2023-02-27T00:35:28.712Z,12.29
2023-02-27T00:37:00.132Z,12.27
2023-02-27T00:38:32.030Z,12.30
2023-02-27T00:40:05.488Z,12.30
2023-02-27T00:41:37.002Z,12.35
2023-02-27T00:43:08.827Z,12.33
2023-02-27T00:44:41.290Z,12.34
2023-02-27T00:46:13.066Z,12.33
2023-02-27T00:47:44.672Z,12.31
2023-02-27T00:49:16.142Z,12.30
2023-02-27T00:50:47.796Z,12.29
2023-02-27T00:52:19.420Z,12.31
2023-02-27T00:53:50.977Z,12.31
2023-02-27T00:55:22.543Z,12.33
2023-02-27T00:56:54.071Z,12.34
2023-02-27T00:58:25.734Z,12.37
2023-02-27T00:59:57.279Z,12.39
2023-02-27T01:01:28.947Z,12.38
2023-02-27T01:03:00.569Z,12.41
2023-02-27T01:04:32.273Z,12.39
2023-02-27T01:06:03.883Z,12.41
2023-02-27T01:07:35.349Z,12.42
2023-02-27T01:09:07.439Z,12.49
2023-02-27T01:10:39.118Z,12.50
2023-02-27T01:12:10.941Z,12.51
2023-02-27T01:13:44.373Z,12.52
2023-02-27T01:15:15.999Z,12.54
2023-02-27T01:16:47.449Z,12.51
2023-02-27T01:18:19.023Z,12.51
2023-02-27T01:19:50.664Z,12.49
2023-02-27T01:21:22.232Z,12.50
2023-02-27T01:22:53.846Z,12.52
2023-02-27T01:24:26.800Z,12.54
2023-02-27T01:25:58.338Z,12.54
2023-02-27T01:27:29.890Z,12.57
2023-02-27T01:29:01.376Z,12.57
2023-02-27T01:30:33.093Z,12.59
2023-02-27T01:32:05.039Z,12.56
2023-02-27T01:33:36.566Z,12.53
2023-02-27T01:35:08.365Z,12.52
2023-02-27T01:36:40.276Z,12.56
2023-02-27T01:38:11.791Z,12.54
2023-02-27T01:39:43.479Z,12.53
2023-02-27T01:41:15.299Z,12.55
2023-02-27T01:42:47.385Z,12.55
2023-02-27T01:44:18.891Z,12.52
2023-02-27T01:45:50.422Z,12.53
2023-02-27T01:47:21.988Z,12.54
2023-02-27T01:48:55.824Z,12.58
2023-02-27T01:50:27.336Z,12.55
2023-02-27T01:52:03.234Z,12.60
2023-02-27T01:53:35.480Z,12.60
2023-02-27T01:55:08.749Z,12.59
2023-02-27T01:56:40.327Z,12.61
2023-02-27T01:58:12.648Z,12.58
2023-02-27T01:59:44.971Z,12.49
2023-02-27T02:01:17.078Z,12.22
2023-02-27T02:03:00.876Z,11.57
2023-02-27T02:05:25.115Z,10.80
2023-02-27T02:07:31.402Z,10.00
2023-02-27T02:09:03.325Z,9.55
2023-02-27T02:10:34.972Z,9.34
2023-02-27T02:12:06.552Z,9.22
2023-02-27T02:13:39.100Z,9.15
2023-02-27T02:15:10.706Z,9.10
2023-02-27T02:16:51.858Z,9.05
2023-02-27T02:18:25.293Z,9.04
2023-02-27T02:20:15.305Z,9.01
2023-02-27T02:21:51.845Z,9.07
2023-02-27T02:23:42.332Z,9.17
2023-02-27T02:25:16.960Z,9.24
2023-02-27T02:27:03.299Z,9.23
2023-02-27T02:28:44.054Z,9.24
2023-02-27T02:30:18.577Z,9.28
2023-02-27T02:31:56.337Z,9.29
2023-02-27T02:33:40.160Z,9.30
2023-02-27T02:35:14.478Z,9.29
2023-02-27T02:36:58.258Z,9.31
2023-02-27T02:38:48.166Z,9.30
2023-02-27T02:40:25.752Z,9.29
2023-02-27T02:42:04.625Z,9.32
2023-02-27T02:43:50.501Z,9.36
2023-02-27T02:45:24.037Z,9.39
2023-02-27T02:47:13.917Z,9.45
2023-02-27T02:48:47.721Z,9.48
2023-02-27T02:50:25.163Z,9.55
2023-02-27T02:52:19.659Z,9.51
2023-02-27T02:53:52.355Z,9.51
2023-02-27T02:55:23.920Z,9.51
2023-02-27T02:57:11.142Z,9.44
2023-02-27T02:58:53.617Z,9.42
2023-02-27T03:00:28.182Z,9.43
2023-02-27T03:02:05.703Z,9.41
2023-02-27T03:03:38.977Z,9.41
2023-02-27T03:05:12.582Z,9.46
2023-02-27T03:06:45.537Z,9.54
2023-02-27T03:08:18.449Z,9.63
2023-02-27T03:09:58.467Z,9.74
2023-02-27T03:11:30.500Z,9.87
2023-02-27T03:13:07.233Z,9.90
2023-02-27T03:14:43.699Z,9.93
2023-02-27T03:16:16.390Z,9.93
2023-02-27T03:17:50.852Z,9.90
2023-02-27T03:19:23.646Z,9.85
2023-02-27T03:20:56.376Z,9.85
2023-02-27T03:22:39.582Z,9.80
2023-02-27T03:24:13.228Z,9.75
2023-02-27T03:25:46.532Z,9.73
2023-02-27T03:27:19.386Z,9.73
2023-02-27T03:28:59.659Z,9.70
2023-02-27T03:30:33.280Z,9.69
2023-02-27T03:32:08.296Z,9.72
2023-02-27T03:33:42.050Z,9.72
2023-02-27T03:35:13.544Z,9.73
2023-02-27T03:36:45.155Z,9.75
2023-02-27T03:38:35.080Z,9.75
2023-02-27T03:40:25.911Z,9.79
2023-02-27T03:42:03.926Z,9.81
2023-02-27T03:43:46.094Z,9.82
2023-02-27T03:45:17.734Z,9.82
2023-02-27T03:46:49.556Z,9.80
2023-02-27T03:48:21.198Z,9.77
2023-02-27T03:49:52.996Z,9.76
2023-02-27T03:51:25.475Z,9.75
2023-02-27T03:52:57.204Z,9.74
2023-02-27T03:54:38.854Z,9.73
2023-02-27T03:56:10.796Z,9.69
2023-02-27T03:57:42.627Z,9.69
2023-02-27T03:59:14.287Z,9.66
2023-02-27T04:00:45.794Z,9.66
2023-02-27T04:02:17.330Z,9.67
2023-02-27T04:03:53.179Z,9.70
2023-02-27T04:05:24.717Z,9.76
2023-02-27T04:07:20.831Z,9.80
2023-02-27T04:08:52.364Z,9.86
2023-02-27T04:10:39.235Z,9.93
2023-02-27T04:12:16.720Z,9.98
2023-02-27T04:13:51.522Z,10.03
2023-02-27T04:15:23.150Z,10.08
2023-02-27T04:17:15.320Z,10.09
2023-02-27T04:18:46.816Z,10.12
2023-02-27T04:20:30.637Z,10.15
2023-02-27T04:22:11.093Z,10.14
2023-02-27T04:23:54.937Z,10.19
2023-02-27T04:25:41.795Z,10.22
2023-02-27T04:27:25.225Z,10.25
2023-02-27T04:29:00.017Z,10.29
2023-02-27T04:30:42.881Z,10.32
2023-02-27T04:32:20.241Z,10.32
2023-02-27T04:34:11.182Z,10.32
2023-02-27T04:35:56.282Z,10.30
2023-02-27T04:37:32.557Z,10.26
2023-02-27T04:39:10.497Z,10.24
2023-02-27T04:40:50.263Z,10.21
2023-02-27T04:42:24.185Z,10.23
2023-02-27T04:43:55.742Z,10.23
2023-02-27T04:45:27.845Z,10.21
2023-02-27T04:46:59.721Z,10.17
2023-02-27T04:48:34.502Z,10.17
2023-02-27T04:50:13.173Z,10.18
2023-02-27T04:51:53.021Z,10.18
2023-02-27T04:53:25.913Z,10.19
2023-02-27T04:55:03.192Z,10.09
2023-02-27T04:56:35.891Z,10.01
2023-02-27T04:58:33.627Z,9.93
2023-02-27T05:00:06.833Z,9.95
2023-02-27T05:01:40.293Z,9.98
2023-02-27T05:03:16.362Z,9.96
2023-02-27T05:04:48.184Z,9.94
2023-02-27T05:06:21.152Z,9.95
2023-02-27T05:07:54.957Z,9.97
2023-02-27T05:09:43.119Z,9.96
2023-02-27T05:11:15.978Z,9.97
2023-02-27T05:12:51.923Z,9.98
2023-02-27T05:14:25.700Z,9.98
2023-02-27T05:16:02.762Z,9.95
2023-02-27T05:18:01.020Z,9.97
2023-02-27T05:19:32.652Z,9.98
2023-02-27T05:21:14.280Z,9.96
2023-02-27T05:23:02.486Z,9.91
2023-02-27T05:24:34.182Z,9.86
2023-02-27T05:26:09.940Z,9.86
2023-02-27T05:27:47.091Z,9.84
2023-02-27T05:29:28.280Z,9.86
2023-02-27T05:31:03.593Z,9.88
2023-02-27T05:32:45.746Z,9.88
2023-02-27T05:34:24.518Z,9.91
2023-02-27T05:35:57.825Z,9.92
2023-02-27T05:37:56.002Z,9.97
2023-02-27T05:39:30.238Z,10.03
2023-02-27T05:41:03.878Z,10.07
2023-02-27T05:42:37.093Z,10.11
2023-02-27T05:44:13.496Z,10.17
2023-02-27T05:45:46.281Z,10.19
2023-02-27T05:47:23.260Z,10.21
2023-02-27T05:49:04.265Z,10.26
2023-02-27T05:50:49.107Z,10.32
2023-02-27T05:52:22.301Z,10.39
2023-02-27T05:54:05.050Z,10.44
2023-02-27T05:55:57.828Z,10.56
2023-02-27T05:57:30.788Z,10.67
2023-02-27T05:59:19.590Z,10.78
2023-02-27T06:00:57.614Z,10.88
2023-02-27T06:02:43.842Z,10.93
2023-02-27T06:04:15.680Z,10.98
2023-02-27T06:05:58.077Z,11.04
2023-02-27T06:07:31.513Z,11.17
2023-02-27T06:09:03.302Z,11.26
2023-02-27T06:10:35.011Z,11.36
2023-02-27T06:12:09.535Z,11.47
2023-02-27T06:13:43.906Z,11.59
2023-02-27T06:15:15.752Z,11.69
2023-02-27T06:18:54.782Z,11.80
2023-02-27T06:20:31.490Z,11.90
2023-02-27T06:22:12.047Z,11.98
2023-02-27T06:23:46.545Z,12.06
2023-02-27T06:25:18.202Z,12.05
2023-02-27T06:26:49.852Z,12.10
2023-02-27T06:28:39.379Z,12.16
2023-02-27T06:30:11.271Z,12.27
2023-02-27T06:31:42.793Z,12.33
2023-02-27T06:35:03.441Z,12.38
2023-02-27T06:36:41.367Z,12.37
2023-02-27T06:38:13.550Z,12.41
2023-02-27T06:39:51.478Z,12.39
2023-02-27T06:41:23.665Z,12.45
2023-02-27T06:42:56.098Z,12.51
2023-02-27T06:44:34.911Z,12.52
2023-02-27T06:46:16.832Z,12.54
2023-02-27T06:50:05.458Z,12.64
2023-02-27T06:57:28.387Z,12.73
2023-02-27T06:59:48.056Z,13.33
2023-02-27T07:05:48.506Z,13.72
2023-02-27T07:07:32.613Z,13.80
2023-02-27T07:17:17.414Z,13.47
2023-02-27T07:34:35.515Z,15.93
2023-02-27T07:36:43.805Z,16.04
2023-02-27T07:39:05.586Z,16.11
2023-02-27T07:41:05.077Z,16.12
2023-02-27T07:42:44.176Z,16.05
2023-02-27T07:54:17.599Z,15.59
2023-02-27T08:00:50.963Z,15.59
2023-02-27T08:02:26.438Z,15.58
2023-02-27T08:05:51.675Z,15.52
2023-02-27T08:07:23.323Z,15.53
2023-02-27T08:09:07.429Z,15.54
2023-02-27T08:10:42.067Z,15.46
2023-02-27T08:16:26.747Z,15.46
2023-02-27T08:18:01.837Z,15.48
2023-02-27T08:19:40.481Z,15.44
2023-02-27T08:21:24.602Z,15.40
2023-02-27T08:22:59.517Z,15.43
2023-02-27T08:24:31.952Z,15.36
2023-02-27T08:26:06.277Z,15.25
2023-02-27T08:27:54.004Z,15.27
2023-02-27T08:29:44.084Z,15.29
2023-02-27T08:31:16.916Z,15.31
2023-02-27T08:36:33.693Z,15.38
2023-02-27T08:38:14.499Z,15.56
2023-02-27T08:41:31.787Z,15.76
2023-02-27T08:43:03.522Z,15.83
2023-02-27T08:44:42.892Z,15.91
2023-02-27T08:48:06.498Z,16.18
2023-02-27T08:49:57.754Z,16.23
2023-02-27T08:51:42.040Z,16.18
2023-02-27T08:53:14.910Z,16.20
2023-02-27T08:54:46.638Z,16.12
2023-02-27T08:56:19.656Z,16.08
2023-02-27T08:58:00.055Z,16.06
2023-02-27T08:59:32.219Z,16.01
2023-02-27T09:01:29.246Z,16.01
2023-02-27T09:03:18.396Z,15.98
2023-02-27T09:04:50.048Z,15.79
2023-02-27T09:08:29.883Z,15.69
2023-02-27T09:10:05.133Z,15.76
2023-02-27T09:13:39.578Z,15.82
2023-02-27T09:15:39.227Z,15.71
2023-02-27T09:17:19.525Z,15.68
2023-02-27T09:19:06.044Z,15.67
2023-02-27T09:22:53.456Z,15.61
2023-02-27T09:24:25.054Z,15.69
2023-02-27T09:25:59.230Z,15.71
2023-02-27T09:27:40.335Z,15.72
2023-02-27T09:29:21.688Z,15.71
2023-02-27T09:31:12.436Z,15.73
2023-02-27T09:32:59.326Z,15.76
2023-02-27T09:34:34.347Z,15.76
2023-02-27T09:36:14.089Z,15.73
2023-02-27T09:37:52.964Z,15.65
2023-02-27T09:39:27.452Z,15.54
2023-02-27T09:40:59.720Z,15.47
2023-02-27T09:44:52.516Z,15.39
2023-02-27T09:48:57.732Z,15.45
2023-02-27T09:50:39.547Z,15.45
2023-02-27T09:52:16.382Z,15.54
2023-02-27T09:53:49.808Z,15.65
2023-02-27T09:55:37.843Z,15.75
2023-02-27T09:57:24.198Z,15.83
2023-02-27T09:59:25.071Z,15.82
2023-02-27T10:01:14.997Z,15.78
2023-02-27T10:02:52.876Z,15.81
2023-02-27T10:04:35.121Z,15.91
2023-02-27T10:06:15.562Z,16.11
2023-02-27T10:08:03.345Z,16.16
2023-02-27T10:10:00.148Z,16.26
2023-02-27T10:11:54.012Z,16.37
2023-02-27T10:13:35.107Z,16.41
2023-02-27T10:17:32.653Z,16.57
2023-02-27T10:21:02.999Z,16.95
2023-02-27T10:22:39.094Z,17.09
2023-02-27T10:26:36.462Z,17.38
2023-02-27T10:28:17.789Z,17.50
2023-02-27T10:30:31.847Z,17.64
2023-02-27T10:32:17.323Z,17.80
2023-02-27T10:34:04.281Z,17.77
2023-02-27T10:35:43.416Z,17.82
2023-02-27T10:37:28.590Z,17.83
2023-02-27T10:39:09.522Z,17.85
2023-02-27T10:40:43.466Z,17.98
2023-02-27T10:42:15.037Z,18.10
2023-02-27T10:43:46.605Z,18.20
2023-02-27T10:45:18.133Z,18.16
2023-02-27T10:46:51.883Z,18.21
2023-02-27T10:48:23.931Z,18.31
2023-02-27T10:49:55.634Z,18.36
2023-02-27T10:51:31.635Z,18.45
2023-02-27T10:53:07.689Z,18.33
2023-02-27T10:54:42.644Z,18.29
2023-02-27T10:56:15.770Z,18.26
2023-02-27T10:57:47.720Z,18.28
2023-02-27T10:59:41.004Z,18.26
2023-02-27T11:01:13.434Z,18.34
2023-02-27T11:02:48.726Z,18.40
2023-02-27T11:04:31.305Z,18.41
2023-02-27T11:06:07.067Z,18.36
2023-02-27T11:07:39.077Z,18.21
2023-02-27T11:09:11.027Z,18.11
2023-02-27T11:10:54.040Z,18.01
2023-02-27T11:12:39.360Z,17.96
2023-02-27T11:14:28.198Z,18.03
2023-02-27T11:16:03.309Z,18.04
2023-02-27T11:17:44.345Z,17.99
2023-02-27T11:19:39.377Z,17.91
2023-02-27T11:21:15.023Z,17.92
2023-02-27T11:22:46.564Z,17.94
2023-02-27T11:24:30.905Z,17.95
2023-02-27T11:26:16.081Z,17.85
2023-02-27T11:27:54.348Z,17.74
2023-02-27T11:29:30.017Z,17.61
2023-02-27T11:31:10.901Z,17.45
2023-02-27T11:32:43.599Z,17.41
2023-02-27T11:34:37.130Z,17.35
2023-02-27T11:36:12.234Z,17.32
2023-02-27T11:37:44.283Z,17.41
2023-02-27T11:41:15.503Z,17.88
2023-02-27T11:42:51.043Z,18.19
2023-02-27T11:44:50.351Z,18.48
2023-02-27T11:46:47.868Z,18.81
2023-02-27T11:48:25.784Z,18.89
2023-02-27T11:50:06.892Z,19.05
2023-02-27T11:51:53.632Z,19.17
2023-02-27T11:53:25.264Z,19.29
2023-02-27T11:54:58.424Z,19.35
2023-02-27T11:56:58.420Z,19.38
2023-02-27T11:58:31.680Z,19.32
2023-02-27T12:00:06.774Z,19.22
2023-02-27T12:01:44.250Z,19.07
2023-02-27T12:03:45.392Z,18.82
2023-02-27T12:05:18.811Z,18.49
2023-02-27T12:07:08.645Z,18.36
2023-02-27T12:08:46.268Z,18.26
2023-02-27T12:10:25.876Z,18.13
2023-02-27T12:12:00.154Z,18.02
2023-02-27T12:13:32.578Z,18.07
2023-02-27T12:15:17.580Z,18.07
2023-02-27T12:16:59.568Z,18.10
2023-02-27T12:18:34.305Z,17.93
2023-02-27T12:20:23.974Z,17.73
2023-02-27T12:22:23.813Z,17.70
2023-02-27T12:24:15.728Z,17.68
2023-02-27T12:25:54.349Z,17.68
2023-02-27T12:27:26.566Z,17.54
2023-02-27T12:29:00.366Z,17.48
2023-02-27T12:30:39.779Z,17.42
2023-02-27T12:32:20.334Z,17.30
2023-02-27T12:34:19.316Z,17.26
2023-02-27T12:35:53.517Z,17.17
2023-02-27T12:37:25.817Z,17.13
2023-02-27T12:39:02.245Z,17.06
2023-02-27T12:40:37.687Z,17.01
2023-02-27T12:42:16.190Z,16.99
2023-02-27T12:43:59.860Z,16.93
2023-02-27T12:45:40.168Z,16.92
2023-02-27T12:47:27.096Z,16.94
2023-02-27T12:49:01.368Z,16.90
2023-02-27T12:50:42.710Z,16.93
2023-02-27T12:52:25.123Z,16.91
2023-02-27T12:54:19.048Z,16.89
2023-02-27T12:56:00.854Z,16.80
2023-02-27T12:57:42.625Z,16.79
2023-02-27T12:59:25.944Z,16.76
2023-02-27T13:01:24.268Z,16.80
2023-02-27T13:03:06.286Z,16.84
2023-02-27T13:04:41.394Z,16.95
2023-02-27T13:06:15.454Z,16.99
2023-02-27T13:07:47.311Z,17.03
2023-02-27T13:09:28.054Z,17.08
2023-02-27T13:11:02.845Z,17.01
2023-02-27T13:12:34.694Z,17.02
2023-02-27T13:14:25.173Z,17.08
2023-02-27T13:16:20.075Z,17.16
2023-02-27T13:17:55.505Z,17.22
2023-02-27T13:19:29.248Z,17.26
2023-02-27T13:21:20.991Z,17.29
2023-02-27T13:23:15.512Z,17.30
2023-02-27T13:24:57.166Z,17.35
2023-02-27T13:26:38.883Z,17.34
2023-02-27T13:28:13.358Z,17.33
2023-02-27T13:29:47.711Z,17.30
2023-02-27T13:31:20.607Z,17.29
2023-02-27T13:33:12.287Z,17.27
2023-02-27T13:34:48.098Z,17.31
2023-02-27T13:36:24.166Z,17.35
2023-02-27T13:38:08.098Z,17.36
2023-02-27T13:39:40.696Z,17.38
2023-02-27T13:41:32.661Z,17.41
2023-02-27T13:43:08.718Z,17.44
2023-02-27T13:44:41.306Z,17.43
2023-02-27T13:46:18.998Z,17.48
2023-02-27T13:47:50.763Z,17.52
2023-02-27T13:49:29.259Z,17.51
2023-02-27T13:51:02.992Z,17.43
2023-02-27T13:52:37.981Z,17.42
2023-02-27T13:54:16.438Z,17.36
2023-02-27T13:55:48.436Z,17.23
2023-02-27T13:57:23.637Z,17.14
2023-02-27T13:58:57.939Z,17.13
2023-02-27T14:00:31.082Z,17.13
2023-02-27T14:02:09.740Z,17.11
2023-02-27T14:03:41.450Z,16.97
2023-02-27T14:05:16.042Z,16.78
2023-02-27T14:06:48.047Z,16.58
2023-02-27T14:08:26.058Z,16.44
2023-02-27T14:10:08.871Z,16.31
2023-02-27T14:11:42.173Z,16.18
2023-02-27T14:13:32.570Z,16.13
2023-02-27T14:15:29.571Z,16.05
2023-02-27T14:17:01.725Z,15.98
2023-02-27T14:18:58.456Z,16.01
2023-02-27T14:20:33.399Z,16.00
2023-02-27T14:22:17.184Z,15.92
2023-02-27T14:23:48.778Z,15.86
2023-02-27T14:25:45.906Z,15.84
2023-02-27T14:27:40.293Z,15.71
2023-02-27T14:29:17.353Z,15.67
2023-02-27T14:31:10.687Z,15.61
2023-02-27T14:32:44.936Z,15.55
2023-02-27T14:34:23.098Z,15.48
2023-02-27T14:36:09.562Z,15.41
2023-02-27T14:37:44.346Z,15.43
2023-02-27T14:39:25.141Z,15.42
2023-02-27T14:41:06.464Z,15.41
2023-02-27T14:42:38.651Z,15.33
2023-02-27T14:44:23.361Z,15.25
2023-02-27T14:45:55.653Z,15.19
2023-02-27T14:47:47.467Z,15.08
2023-02-27T14:49:22.613Z,15.02
2023-02-27T14:51:01.915Z,14.89
2023-02-27T14:52:40.759Z,14.85
2023-02-27T14:54:15.885Z,14.75
2023-02-27T14:55:53.959Z,14.67
2023-02-27T14:57:29.489Z,14.68
2023-02-27T14:59:05.078Z,14.61
2023-02-27T15:00:41.122Z,14.55
2023-02-27T15:02:26.205Z,14.44
2023-02-27T15:03:58.651Z,14.37
2023-02-27T15:05:33.530Z,14.31
2023-02-27T15:07:06.318Z,14.23
2023-02-27T15:08:38.434Z,14.14
2023-02-27T15:10:10.212Z,14.03
2023-02-27T15:11:44.821Z,13.92
2023-02-27T15:13:28.362Z,13.77
2023-02-27T15:15:00.527Z,13.67
2023-02-27T15:16:34.608Z,13.64
2023-02-27T15:18:11.816Z,13.58
2023-02-27T15:19:56.240Z,13.53
2023-02-27T15:21:28.866Z,13.45
2023-02-27T15:23:01.730Z,13.36
2023-02-27T15:24:49.148Z,13.28
2023-02-27T15:26:21.689Z,13.27
2023-02-27T15:27:54.030Z,13.28
2023-02-27T15:29:26.796Z,13.26
2023-02-27T15:30:59.955Z,13.27
2023-02-27T15:32:32.643Z,13.24
2023-02-27T15:34:04.396Z,13.21
2023-02-27T15:35:36.408Z,13.20
2023-02-27T15:37:07.924Z,13.20
2023-02-27T15:38:39.452Z,13.18
2023-02-27T15:40:11.821Z,13.20
2023-02-27T15:41:48.807Z,13.24
2023-02-27T15:43:20.494Z,13.27
2023-02-27T15:44:53.636Z,13.33
2023-02-27T15:46:25.662Z,13.40
2023-02-27T15:47:57.676Z,13.37
2023-02-27T15:49:29.798Z,13.32
2023-02-27T15:51:02.439Z,13.35
2023-02-27T15:52:40.256Z,13.37
2023-02-27T15:54:11.926Z,13.32
2023-02-27T15:55:45.093Z,13.24
2023-02-27T15:57:16.762Z,13.18
2023-02-27T15:58:54.442Z,13.17
2023-02-27T16:00:26.836Z,13.14
2023-02-27T16:02:01.032Z,13.06
2023-02-27T16:03:39.540Z,13.03
2023-02-27T16:05:30.205Z,12.96
2023-02-27T16:07:03.282Z,12.92
2023-02-27T16:08:35.006Z,12.87
2023-02-27T16:10:08.641Z,12.78
2023-02-27T16:11:40.312Z,12.73
2023-02-27T16:13:31.534Z,12.65
2023-02-27T16:15:29.193Z,12.63
2023-02-27T16:17:00.784Z,12.55
2023-02-27T16:18:34.644Z,12.56
2023-02-27T16:20:24.698Z,12.57
2023-02-27T16:22:06.844Z,12.55
2023-02-27T16:23:38.434Z,12.55
2023-02-27T16:25:10.578Z,12.61
2023-02-27T16:26:42.197Z,12.64
2023-02-27T16:28:14.220Z,12.69
2023-02-27T16:29:45.800Z,12.70
2023-02-27T16:31:24.970Z,12.69
2023-02-27T16:33:00.324Z,12.65
2023-02-27T16:34:44.229Z,12.63
2023-02-27T16:36:43.430Z,12.58
2023-02-27T16:38:15.087Z,12.51
2023-02-27T16:39:47.368Z,12.46
2023-02-27T16:41:19.959Z,12.35
2023-02-27T16:42:51.895Z,12.27
2023-02-27T16:44:24.501Z,12.18
2023-02-27T16:45:56.680Z,12.07
2023-02-27T16:47:29.217Z,11.98
2023-02-27T16:49:14.199Z,11.94
2023-02-27T16:50:50.882Z,11.94
2023-02-27T16:52:22.843Z,11.90
2023-02-27T16:53:55.044Z,11.89
2023-02-27T16:55:33.730Z,11.89
2023-02-27T16:57:05.551Z,11.88
2023-02-27T16:58:38.207Z,11.87
2023-02-27T17:00:13.852Z,11.89
2023-02-27T17:01:45.389Z,11.91
2023-02-27T17:03:16.979Z,11.90
2023-02-27T17:04:50.065Z,11.89
2023-02-27T17:06:22.209Z,11.85
2023-02-27T17:07:53.737Z,11.81
2023-02-27T17:09:27.751Z,11.78
2023-02-27T17:10:59.498Z,11.72
2023-02-27T17:12:31.355Z,11.70
2023-02-27T17:14:03.606Z,11.64
2023-02-27T17:15:35.342Z,11.63
2023-02-27T17:17:07.166Z,11.63
2023-02-27T17:18:38.956Z,11.62
2023-02-27T17:20:11.517Z,11.59
2023-02-27T17:21:43.734Z,11.56
2023-02-27T17:23:15.759Z,11.56
2023-02-27T17:25:00.806Z,11.55
2023-02-27T17:26:55.706Z,11.59
2023-02-27T17:28:27.442Z,11.71
2023-02-27T17:29:59.491Z,11.81
2023-02-27T17:31:31.163Z,11.90
2023-02-27T17:33:04.245Z,11.93
2023-02-27T17:34:36.033Z,11.95
2023-02-27T17:36:08.450Z,11.97
2023-02-27T17:37:40.121Z,11.97
2023-02-27T17:39:12.068Z,11.98
2023-02-27T17:40:43.737Z,12.02
2023-02-27T17:42:18.628Z,12.04
2023-02-27T17:43:51.589Z,12.00
2023-02-27T17:45:24.818Z,11.98
2023-02-27T17:46:56.446Z,11.92
2023-02-27T17:48:28.029Z,11.86
2023-02-27T17:50:09.640Z,11.81
2023-02-27T17:51:47.395Z,11.74
2023-02-27T17:53:19.242Z,11.71
2023-02-27T17:54:51.378Z,11.65
2023-02-27T17:56:23.149Z,11.65
2023-02-27T17:58:04.832Z,11.67
2023-02-27T17:59:45.333Z,11.70
2023-02-27T18:01:23.082Z,11.74
2023-02-27T18:02:56.986Z,11.71
2023-02-27T18:04:32.142Z,11.67
2023-02-27T18:06:08.427Z,11.58
2023-02-27T18:07:40.361Z,11.53
2023-02-27T18:09:11.966Z,11.56
2023-02-27T18:10:55.195Z,11.59
2023-02-27T18:12:26.908Z,11.60
2023-02-27T18:14:04.845Z,11.62
2023-02-27T18:17:22.021Z,11.59
2023-02-27T18:18:53.643Z,11.57
2023-02-27T18:20:25.431Z,11.60
2023-02-27T18:21:57.549Z,11.65
2023-02-27T18:23:33.568Z,11.61
2023-02-27T18:25:05.594Z,11.58
2023-02-27T18:26:42.322Z,11.54
2023-02-27T18:28:13.842Z,11.52
2023-02-27T18:29:47.651Z,11.54
2023-02-27T18:31:23.230Z,11.54
2023-02-27T18:33:00.957Z,11.59
2023-02-27T18:34:32.645Z,11.58
2023-02-27T18:36:07.432Z,11.53
2023-02-27T18:37:39.349Z,11.39
2023-02-27T18:39:13.014Z,11.30
2023-02-27T18:40:44.937Z,11.20
2023-02-27T18:42:16.566Z,11.05
2023-02-27T18:43:51.343Z,10.86
2023-02-27T18:45:56.537Z,10.74
2023-02-27T18:47:37.381Z,10.68
2023-02-27T18:49:25.900Z,10.61
2023-02-27T18:51:01.720Z,10.57
2023-02-27T18:52:35.037Z,10.50
2023-02-27T18:54:07.892Z,10.44
2023-02-27T18:55:39.682Z,10.40
2023-02-27T18:57:11.539Z,10.40
2023-02-27T18:58:46.348Z,10.39
2023-02-27T19:00:22.081Z,10.41
2023-02-27T19:02:25.760Z,10.43
2023-02-27T19:08:38.708Z,10.55
2023-02-27T19:14:46.077Z,10.67
2023-02-27T19:15:33.017Z,10.67
2023-02-27T19:16:54.550Z,10.67
2023-02-27T19:21:16.184Z,10.71
2023-02-27T19:24:51.887Z,10.65
2023-02-27T19:27:01.403Z,10.55
2023-02-27T19:31:56.161Z,10.36
2023-02-27T19:37:28.149Z,10.41
2023-02-27T19:41:34.522Z,10.47
2023-02-27T19:45:34.193Z,10.55
2023-02-27T19:52:59.100Z,10.68
2023-02-27T19:54:44.760Z,10.67
2023-02-27T19:56:46.840Z,10.66
2023-02-27T20:29:47.921Z,10.05
2023-02-27T20:31:57.920Z,9.86
2023-02-27T20:33:30.171Z,9.75
2023-02-27T20:35:10.585Z,9.72
2023-02-27T20:36:42.682Z,9.73
2023-02-27T20:38:18.129Z,9.75
2023-02-27T20:39:53.140Z,9.78
2023-02-27T20:41:29.015Z,9.83
2023-02-27T20:43:24.205Z,9.86
2023-02-27T20:45:02.476Z,9.79
2023-02-27T20:46:49.531Z,9.67
2023-02-27T20:48:23.251Z,9.60
2023-02-27T20:49:55.185Z,9.61
2023-02-27T20:51:27.791Z,9.60
2023-02-27T20:52:59.809Z,9.51
2023-02-27T20:54:31.371Z,9.35
2023-02-27T20:56:03.132Z,9.18
2023-02-27T20:57:34.774Z,9.11
2023-02-27T20:59:06.826Z,9.08
2023-02-27T21:00:38.538Z,9.13
2023-02-27T21:02:18.656Z,9.17
2023-02-27T21:03:55.876Z,9.14
2023-02-27T21:05:27.847Z,9.10
2023-02-27T21:06:59.732Z,9.11
2023-02-27T21:08:31.616Z,9.11
2023-02-27T21:10:04.837Z,9.16
2023-02-27T21:11:37.289Z,9.16
2023-02-27T21:13:09.078Z,9.20
2023-02-27T21:14:42.389Z,9.17
2023-02-27T21:16:15.942Z,9.10
2023-02-27T21:17:47.510Z,9.10
2023-02-27T21:19:19.404Z,9.13
2023-02-27T21:20:50.920Z,9.17
2023-02-27T21:22:23.367Z,9.22
2023-02-27T21:23:55.622Z,9.27
2023-02-27T21:25:27.580Z,9.30
2023-02-27T21:26:59.656Z,9.31
2023-02-27T21:28:32.901Z,9.30
2023-02-27T21:30:05.699Z,9.33
2023-02-27T21:31:37.476Z,9.25
2023-02-27T21:33:09.154Z,9.15
2023-02-27T21:34:41.045Z,9.08
2023-02-27T21:36:12.800Z,9.03
2023-02-27T21:37:46.943Z,8.93
2023-02-27T21:39:22.788Z,8.90
2023-02-27T21:40:54.914Z,8.81
2023-02-27T21:42:26.528Z,8.81
2023-02-27T21:43:58.975Z,8.79
2023-02-27T21:45:30.564Z,8.79
2023-02-27T21:47:10.108Z,8.80
2023-02-27T21:48:42.073Z,8.84
2023-02-27T21:50:18.413Z,8.86
2023-02-27T21:51:50.009Z,8.85
2023-02-27T21:53:21.577Z,8.87
2023-02-27T21:54:54.308Z,8.92
2023-02-27T21:56:26.808Z,8.94
2023-02-27T21:57:58.476Z,9.00
2023-02-27T21:59:30.176Z,9.01
2023-02-27T22:01:01.776Z,9.07
2023-02-27T22:02:33.784Z,9.10
2023-02-27T22:04:05.494Z,9.13
2023-02-27T22:05:39.885Z,9.16
2023-02-27T22:07:11.625Z,9.15
2023-02-27T22:08:43.195Z,9.19
2023-02-27T22:10:14.757Z,9.16
2023-02-27T22:11:46.583Z,9.18
2023-02-27T22:13:18.093Z,9.19
2023-02-27T22:14:49.901Z,9.18
2023-02-27T22:16:21.728Z,9.17
2023-02-27T22:17:54.888Z,9.13
2023-02-27T22:19:26.437Z,9.12
2023-02-27T22:20:58.124Z,9.14
2023-02-27T22:22:30.115Z,9.10
2023-02-27T22:24:01.646Z,9.14
2023-02-27T22:25:33.139Z,9.18
2023-02-27T22:27:04.663Z,9.16
2023-02-27T22:28:37.264Z,9.14
2023-02-27T22:30:09.585Z,9.14
2023-02-27T22:31:41.297Z,9.14
2023-02-27T22:33:13.173Z,9.16
2023-02-27T22:34:44.716Z,9.21
2023-02-27T22:36:19.338Z,9.23
2023-02-27T22:37:51.017Z,9.26
2023-02-27T22:39:22.691Z,9.28
2023-02-27T22:40:54.226Z,9.29
2023-02-27T22:42:25.734Z,9.32
2023-02-27T22:43:57.758Z,9.38
2023-02-27T22:45:29.289Z,9.44
2023-02-27T22:47:00.834Z,9.47
2023-02-27T22:48:32.613Z,9.48
2023-02-27T22:50:04.458Z,9.48
2023-02-27T22:51:35.972Z,9.52
2023-02-27T22:53:07.612Z,9.54
2023-02-27T22:54:39.577Z,9.54
2023-02-27T22:56:14.385Z,9.55
2023-02-27T22:57:49.931Z,9.58
2023-02-27T22:59:21.624Z,9.69
2023-02-27T23:00:53.767Z,9.73
2023-02-27T23:02:25.454Z,9.73
2023-02-27T23:03:57.894Z,9.74
2023-02-27T23:05:29.504Z,9.75
2023-02-27T23:07:01.093Z,9.76
2023-02-27T23:08:32.553Z,9.81
2023-02-27T23:10:09.829Z,9.86
2023-02-27T23:11:42.109Z,9.88
2023-02-27T23:13:13.661Z,9.85
2023-02-27T23:14:45.229Z,9.83
2023-02-27T23:16:17.626Z,9.79
2023-02-27T23:17:57.897Z,9.71
2023-02-27T23:19:29.961Z,9.65
2023-02-27T23:21:03.105Z,9.63
2023-02-27T23:22:34.723Z,9.62
2023-02-27T23:24:10.634Z,9.65
2023-02-27T23:25:42.097Z,9.67
2023-02-27T23:27:25.532Z,9.68
2023-02-27T23:28:57.806Z,9.67
2023-02-27T23:30:29.373Z,9.66
2023-02-27T23:32:00.968Z,9.66